createdAt,value
2017-05-19T00:00:52.663Z,1002.4
2017-05-19T00:01:52.653Z,1002.37
2017-05-19T00:02:52.635Z,1002.41
2017-05-19T00:03:52.619Z,1002.38
2017-05-19T00:04:52.605Z,1002.35
2017-05-19T00:05:52.597Z,1002.35
2017-05-19T00:06:52.573Z,1002.32
2017-05-19T00:07:52.561Z,1002.33
2017-05-19T00:08:52.554Z,1002.33
2017-05-19T00:09:52.532Z,1002.28
2017-05-19T00:10:52.519Z,1002.27
2017-05-19T00:11:52.504Z,1002.25
2017-05-19T00:12:52.492Z,1002.19
2017-05-19T00:13:52.484Z,1002.19
2017-05-19T00:14:52.464Z,1002.19
2017-05-19T00:15:52.456Z,1002.14
2017-05-19T00:16:52.434Z,1002.14
2017-05-19T00:17:52.424Z,1002.11
2017-05-19T00:18:52.403Z,1002.05
2017-05-19T00:19:52.393Z,1002.06
2017-05-19T00:20:52.381Z,1002.09
2017-05-19T00:21:52.365Z,1002.12
2017-05-19T00:22:52.354Z,1002.1
2017-05-19T00:23:52.336Z,1002.07
2017-05-19T00:24:52.338Z,1002.03
2017-05-19T00:25:52.304Z,1001.99
2017-05-19T00:26:52.297Z,1001.97
2017-05-19T00:27:52.276Z,1001.98
2017-05-19T00:28:52.263Z,1001.99
2017-05-19T00:29:52.244Z,1001.99
2017-05-19T00:30:52.234Z,1001.99
2017-05-19T00:31:52.220Z,1001.97
2017-05-19T00:32:52.205Z,1002.01
2017-05-19T00:33:52.193Z,1002.01
2017-05-19T00:34:52.177Z,1001.96
2017-05-19T00:35:52.164Z,1001.99
2017-05-19T00:36:52.153Z,1002
2017-05-19T00:37:52.134Z,1002
2017-05-19T00:38:52.124Z,1001.96
2017-05-19T00:39:52.105Z,1001.97
2017-05-19T00:40:52.087Z,1001.97
2017-05-19T00:41:52.074Z,1001.96
2017-05-19T00:42:52.064Z,1001.99
2017-05-19T00:43:52.047Z,1001.99
2017-05-19T00:44:52.035Z,1001.96
2017-05-19T00:45:52.023Z,1001.96
2017-05-19T00:46:52.004Z,1001.98
2017-05-19T00:47:51.993Z,1001.92
2017-05-19T00:48:51.973Z,1001.9
2017-05-19T00:49:51.961Z,1001.91
2017-05-19T00:50:51.947Z,1001.87
2017-05-19T00:51:51.931Z,1001.92
2017-05-19T00:52:51.924Z,1001.92
2017-05-19T00:53:51.905Z,1001.92
2017-05-19T00:54:51.894Z,1001.89
2017-05-19T00:55:51.875Z,1001.89
2017-05-19T00:56:51.860Z,1001.87
2017-05-19T00:57:51.845Z,1001.84
2017-05-19T00:58:51.837Z,1001.87
2017-05-19T00:59:51.814Z,1001.85
2017-05-19T01:00:51.923Z,1001.86
2017-05-19T01:01:51.788Z,1001.86
2017-05-19T01:02:51.909Z,1001.85
2017-05-19T01:03:51.760Z,1001.83
2017-05-19T01:04:51.832Z,1001.81
2017-05-19T01:05:51.735Z,1001.78
2017-05-19T01:06:51.718Z,1001.81
2017-05-19T01:07:51.701Z,1001.85
2017-05-19T01:08:51.693Z,1001.81
2017-05-19T01:09:51.675Z,1001.82
2017-05-19T01:10:51.654Z,1001.8
2017-05-19T01:11:51.644Z,1001.79
2017-05-19T01:12:51.735Z,1001.75
2017-05-19T01:13:51.612Z,1001.75
2017-05-19T01:14:51.599Z,1001.72
2017-05-19T01:15:51.582Z,1001.75
2017-05-19T01:16:51.671Z,1001.74
2017-05-19T01:17:51.552Z,1001.76
2017-05-19T01:18:51.545Z,1001.78
2017-05-19T01:19:51.525Z,1001.79
2017-05-19T01:20:51.564Z,1001.78
2017-05-19T01:21:51.494Z,1001.77
2017-05-19T01:22:51.485Z,1001.82
2017-05-19T01:23:51.477Z,1001.81
2017-05-19T01:24:51.500Z,1001.79
2017-05-19T01:25:51.444Z,1001.76
2017-05-19T01:26:51.423Z,1001.75
2017-05-19T01:27:51.413Z,1001.76
2017-05-19T01:28:51.394Z,1001.78
2017-05-19T01:29:51.383Z,1001.77
2017-05-19T01:30:51.415Z,1001.79
2017-05-19T01:31:51.353Z,1001.79
2017-05-19T01:32:51.337Z,1001.77
2017-05-19T01:33:51.319Z,1001.8
2017-05-19T01:34:51.310Z,1001.73
2017-05-19T01:35:51.290Z,1001.79
2017-05-19T01:36:51.274Z,1001.78
2017-05-19T01:37:51.265Z,1001.85
2017-05-19T01:38:51.248Z,1001.86
2017-05-19T01:39:51.244Z,1001.86
2017-05-19T01:40:51.223Z,1001.88
2017-05-19T01:41:51.204Z,1001.88
2017-05-19T01:42:51.194Z,1001.92
2017-05-19T01:43:51.176Z,1001.99
2017-05-19T01:44:51.163Z,1002.1
2017-05-19T01:45:51.152Z,1002.14
2017-05-19T01:46:51.133Z,1002.16
2017-05-19T01:47:51.123Z,1002.16
2017-05-19T01:48:51.106Z,1002.18
2017-05-19T01:49:51.093Z,1002.18
2017-05-19T01:50:51.078Z,1002.17
2017-05-19T01:51:51.058Z,1002.21
2017-05-19T01:52:51.043Z,1002.22
2017-05-19T01:53:51.027Z,1002.21
2017-05-19T01:54:51.010Z,1002.17
2017-05-19T01:55:51.006Z,1002.18
2017-05-19T01:56:51.015Z,1002.2
2017-05-19T01:57:50.968Z,1002.17
2017-05-19T01:58:50.957Z,1002.17
2017-05-19T01:59:50.942Z,1002.18
2017-05-19T02:00:50.923Z,1002.22
2017-05-19T02:01:50.914Z,1002.24
2017-05-19T02:02:50.895Z,1002.24
2017-05-19T02:03:50.882Z,1002.21
2017-05-19T02:04:50.866Z,1002.21
2017-05-19T02:05:50.853Z,1002.16
2017-05-19T02:06:50.833Z,1002.27
2017-05-19T02:07:50.824Z,1002.28
2017-05-19T02:08:50.804Z,1002.23
2017-05-19T02:09:50.788Z,1002.2
2017-05-19T02:10:50.772Z,1002.2
2017-05-19T02:11:50.758Z,1002.2
2017-05-19T02:12:50.745Z,1002.2
2017-05-19T02:13:50.729Z,1002.23
2017-05-19T02:14:50.715Z,1002.21
2017-05-19T02:15:50.699Z,1002.19
2017-05-19T02:16:50.683Z,1002.23
2017-05-19T02:17:50.665Z,1002.21
2017-05-19T02:18:50.652Z,1002.25
2017-05-19T02:19:50.642Z,1002.28
2017-05-19T02:20:50.621Z,1002.26
2017-05-19T02:21:50.616Z,1002.25
2017-05-19T02:22:50.595Z,1002.28
2017-05-19T02:23:50.578Z,1002.27
2017-05-19T02:24:50.565Z,1002.24
2017-05-19T02:25:50.601Z,1002.24
2017-05-19T02:26:50.536Z,1002.25
2017-05-19T02:27:50.515Z,1002.25
2017-05-19T02:28:50.505Z,1002.24
2017-05-19T02:29:50.484Z,1002.24
2017-05-19T02:30:50.472Z,1002.21
2017-05-19T02:31:50.456Z,1002.22
2017-05-19T02:32:50.446Z,1002.18
2017-05-19T02:33:50.425Z,1002.2
2017-05-19T02:34:50.411Z,1002.17
2017-05-19T02:35:50.398Z,1002.17
2017-05-19T02:36:50.381Z,1002.15
2017-05-19T02:37:50.363Z,1002.12
2017-05-19T02:38:50.345Z,1002.08
2017-05-19T02:39:50.329Z,1002.06
2017-05-19T02:40:50.326Z,1002.05
2017-05-19T02:41:50.300Z,1002.08
2017-05-19T02:42:50.283Z,1002.06
2017-05-19T02:43:50.277Z,1002.05
2017-05-19T02:44:50.254Z,1002.03
2017-05-19T02:45:50.245Z,1001.98
2017-05-19T02:46:50.226Z,1002
2017-05-19T02:47:50.207Z,1001.93
2017-05-19T02:48:50.193Z,1001.91
2017-05-19T02:49:50.185Z,1001.91
2017-05-19T02:50:50.166Z,1001.91
2017-05-19T02:51:50.148Z,1001.9
2017-05-19T02:52:50.135Z,1001.93
2017-05-19T02:53:50.126Z,1001.93
2017-05-19T02:54:50.105Z,1001.95
2017-05-19T02:55:50.112Z,1001.92
2017-05-19T02:56:50.072Z,1001.94
2017-05-19T02:57:50.065Z,1001.9
2017-05-19T02:58:50.039Z,1001.89
2017-05-19T02:59:50.030Z,1001.81
2017-05-19T03:00:50.009Z,1001.75
2017-05-19T03:01:50.002Z,1001.72
2017-05-19T03:02:49.978Z,1001.69
2017-05-19T03:03:49.963Z,1001.67
2017-05-19T03:04:49.946Z,1001.64
2017-05-19T03:05:49.937Z,1001.58
2017-05-19T03:06:49.917Z,1001.5
2017-05-19T03:07:49.901Z,1001.43
2017-05-19T03:08:49.882Z,1001.43
2017-05-19T03:09:49.942Z,1001.42
2017-05-19T03:10:49.854Z,1001.29
2017-05-19T03:11:49.939Z,1001.28
2017-05-19T03:12:49.823Z,1001.25
2017-05-19T03:13:49.907Z,1001.36
2017-05-19T03:14:49.790Z,1001.47
2017-05-19T03:15:49.875Z,1001.57
2017-05-19T03:16:49.764Z,1001.6
2017-05-19T03:17:49.855Z,1001.64
2017-05-19T03:18:49.737Z,1001.66
2017-05-19T03:19:49.736Z,1001.71
2017-05-19T03:20:49.703Z,1001.71
2017-05-19T03:21:49.734Z,1001.74
2017-05-19T03:22:49.671Z,1001.71
2017-05-19T03:23:49.717Z,1001.67
2017-05-19T03:24:49.642Z,1001.66
2017-05-19T03:25:49.672Z,1001.63
2017-05-19T03:26:49.610Z,1001.68
2017-05-19T03:27:49.599Z,1001.7
2017-05-19T03:28:49.579Z,1001.72
2017-05-19T03:29:49.561Z,1001.68
2017-05-19T03:30:49.544Z,1001.68
2017-05-19T03:31:49.532Z,1001.59
2017-05-19T03:32:49.514Z,1001.65
2017-05-19T03:33:49.501Z,1001.64
2017-05-19T03:34:49.484Z,1001.63
2017-05-19T03:35:49.468Z,1001.66
2017-05-19T03:36:49.455Z,1001.71
2017-05-19T03:37:49.439Z,1001.67
2017-05-19T03:38:49.424Z,1001.67
2017-05-19T03:39:49.464Z,1001.61
2017-05-19T03:40:49.395Z,1001.59
2017-05-19T03:41:49.387Z,1001.61
2017-05-19T03:42:49.360Z,1001.62
2017-05-19T03:43:49.344Z,1001.58
2017-05-19T03:44:49.330Z,1001.56
2017-05-19T03:45:49.317Z,1001.58
2017-05-19T03:46:49.300Z,1001.62
2017-05-19T03:47:49.285Z,1001.56
2017-05-19T03:48:49.269Z,1001.55
2017-05-19T03:49:49.256Z,1001.52
2017-05-19T03:50:49.244Z,1001.55
2017-05-19T03:51:49.225Z,1001.61
2017-05-19T03:52:49.216Z,1001.54
2017-05-19T03:53:49.195Z,1001.55
2017-05-19T03:54:49.176Z,1001.54
2017-05-19T03:55:49.164Z,1001.47
2017-05-19T03:56:49.143Z,1001.48
2017-05-19T03:57:49.134Z,1001.41
2017-05-19T03:58:49.113Z,1001.43
2017-05-19T03:59:49.105Z,1001.49
2017-05-19T04:00:49.083Z,1001.58
2017-05-19T04:01:49.075Z,1001.55
2017-05-19T04:02:49.055Z,1001.51
2017-05-19T04:03:49.043Z,1001.58
2017-05-19T04:04:49.025Z,1001.58
2017-05-19T04:05:49.004Z,1001.61
2017-05-19T04:06:48.996Z,1001.63
2017-05-19T04:07:48.982Z,1001.68
2017-05-19T04:08:48.961Z,1001.72
2017-05-19T04:09:48.942Z,1001.68
2017-05-19T04:10:48.930Z,1001.69
2017-05-19T04:11:48.915Z,1001.69
2017-05-19T04:12:48.899Z,1001.69
2017-05-19T04:13:48.883Z,1001.68
2017-05-19T04:14:48.876Z,1001.66
2017-05-19T04:15:48.856Z,1001.68
2017-05-19T04:16:48.835Z,1001.67
2017-05-19T04:17:48.824Z,1001.66
2017-05-19T04:18:48.803Z,1001.64
2017-05-19T04:19:48.800Z,1001.66
2017-05-19T04:20:48.777Z,1001.66
2017-05-19T04:21:48.760Z,1001.65
2017-05-19T04:22:48.744Z,1001.64
2017-05-19T04:23:48.731Z,1001.64
2017-05-19T04:24:48.714Z,1001.65
2017-05-19T04:25:48.696Z,1001.68
2017-05-19T04:26:48.686Z,1001.7
2017-05-19T04:27:48.670Z,1001.73
2017-05-19T04:28:48.655Z,1001.78
2017-05-19T04:29:48.640Z,1001.79
2017-05-19T04:30:48.629Z,1001.75
2017-05-19T04:31:48.615Z,1001.77
2017-05-19T04:32:48.592Z,1001.77
2017-05-19T04:33:48.582Z,1001.75
2017-05-19T04:34:48.566Z,1001.75
2017-05-19T04:35:48.546Z,1001.77
2017-05-19T04:36:48.533Z,1001.76
2017-05-19T04:37:48.514Z,1001.76
2017-05-19T04:38:48.505Z,1001.75
2017-05-19T04:39:48.484Z,1001.74
2017-05-19T04:40:48.479Z,1001.77
2017-05-19T04:41:48.456Z,1001.78
2017-05-19T04:42:48.444Z,1001.77
2017-05-19T04:43:48.425Z,1001.78
2017-05-19T04:44:48.415Z,1001.79
2017-05-19T04:45:48.393Z,1001.83
2017-05-19T04:46:48.381Z,1001.83
2017-05-19T04:47:48.373Z,1001.85
2017-05-19T04:48:48.352Z,1001.86
2017-05-19T04:49:48.334Z,1001.89
2017-05-19T04:50:48.325Z,1001.9
2017-05-19T04:51:48.305Z,1001.93
2017-05-19T04:52:48.294Z,1001.96
2017-05-19T04:53:48.275Z,1001.98
2017-05-19T04:54:48.260Z,1001.95
2017-05-19T04:55:48.245Z,1001.89
2017-05-19T04:56:48.282Z,1001.89
2017-05-19T04:57:48.216Z,1001.87
2017-05-19T04:58:48.216Z,1001.9
2017-05-19T04:59:48.185Z,1001.89
2017-05-19T05:00:48.209Z,1001.88
2017-05-19T05:01:48.155Z,1001.87
2017-05-19T05:02:48.141Z,1001.86
2017-05-19T05:03:48.130Z,1001.89
2017-05-19T05:04:48.114Z,1001.9
2017-05-19T05:05:48.095Z,1001.96
2017-05-19T05:06:48.086Z,1001.96
2017-05-19T05:07:48.066Z,1001.93
2017-05-19T05:08:48.056Z,1001.92
2017-05-19T05:09:48.043Z,1001.95
2017-05-19T05:10:48.018Z,1002
2017-05-19T05:11:48.001Z,1002.09
2017-05-19T05:12:48.053Z,1002.15
2017-05-19T05:13:47.977Z,1002.16
2017-05-19T05:14:47.954Z,1002.17
2017-05-19T05:15:47.948Z,1002.2
2017-05-19T05:16:47.928Z,1002.21
2017-05-19T05:17:47.918Z,1002.33
2017-05-19T05:18:47.946Z,1002.35
2017-05-19T05:19:47.883Z,1002.38
2017-05-19T05:20:47.964Z,1002.42
2017-05-19T05:21:47.849Z,1002.39
2017-05-19T05:22:47.848Z,1002.36
2017-05-19T05:23:47.820Z,1002.33
2017-05-19T05:24:47.805Z,1002.31
2017-05-19T05:25:47.787Z,1002.35
2017-05-19T05:26:47.778Z,1002.34
2017-05-19T05:27:47.758Z,1002.37
2017-05-19T05:28:47.845Z,1002.37
2017-05-19T05:29:47.725Z,1002.41
2017-05-19T05:30:47.736Z,1002.45
2017-05-19T05:31:47.696Z,1002.45
2017-05-19T05:32:47.734Z,1002.47
2017-05-19T05:33:47.665Z,1002.51
2017-05-19T05:34:47.673Z,1002.53
2017-05-19T05:35:47.637Z,1002.55
2017-05-19T05:36:47.622Z,1002.52
2017-05-19T05:37:47.610Z,1002.53
2017-05-19T05:38:47.649Z,1002.53
2017-05-19T05:39:47.579Z,1002.6
2017-05-19T05:40:47.582Z,1002.59
2017-05-19T05:41:47.549Z,1002.63
2017-05-19T05:42:47.530Z,1002.57
2017-05-19T05:43:47.516Z,1002.58
2017-05-19T05:44:47.495Z,1002.62
2017-05-19T05:45:47.482Z,1002.62
2017-05-19T05:46:47.468Z,1002.61
2017-05-19T05:47:47.456Z,1002.59
2017-05-19T05:48:47.438Z,1002.59
2017-05-19T05:49:47.422Z,1002.64
2017-05-19T05:50:47.408Z,1002.62
2017-05-19T05:51:47.388Z,1002.62
2017-05-19T05:52:47.378Z,1002.66
2017-05-19T05:53:47.366Z,1002.61
2017-05-19T05:54:47.343Z,1002.61
2017-05-19T05:55:47.327Z,1002.64
2017-05-19T05:56:47.316Z,1002.6
2017-05-19T05:57:47.296Z,1002.62
2017-05-19T05:58:47.284Z,1002.65
2017-05-19T05:59:47.264Z,1002.67
2017-05-19T06:00:47.257Z,1002.67
2017-05-19T06:01:47.239Z,1002.71
2017-05-19T06:02:47.219Z,1002.68
2017-05-19T06:03:47.206Z,1002.72
2017-05-19T06:04:47.193Z,1002.74
2017-05-19T06:05:47.176Z,1002.69
2017-05-19T06:06:47.159Z,1002.71
2017-05-19T06:07:47.143Z,1002.71
2017-05-19T06:08:47.126Z,1002.69
2017-05-19T06:09:47.111Z,1002.68
2017-05-19T06:10:47.093Z,1002.7
2017-05-19T06:11:47.081Z,1002.69
2017-05-19T06:12:47.065Z,1002.69
2017-05-19T06:13:47.057Z,1002.7
2017-05-19T06:14:47.035Z,1002.75
2017-05-19T06:15:47.018Z,1002.73
2017-05-19T06:16:47.005Z,1002.74
2017-05-19T06:17:46.992Z,1002.77
2017-05-19T06:18:46.972Z,1002.77
2017-05-19T06:19:46.956Z,1002.81
2017-05-19T06:20:46.944Z,1002.79
2017-05-19T06:21:46.925Z,1002.84
2017-05-19T06:22:46.914Z,1002.85
2017-05-19T06:23:46.895Z,1002.87
2017-05-19T06:24:46.882Z,1002.89
2017-05-19T06:25:46.863Z,1002.91
2017-05-19T06:26:46.847Z,1002.88
2017-05-19T06:27:46.835Z,1002.94
2017-05-19T06:28:46.818Z,1002.91
2017-05-19T06:29:46.802Z,1002.97
2017-05-19T06:30:46.795Z,1002.93
2017-05-19T06:31:46.775Z,1002.94
2017-05-19T06:32:46.753Z,1002.96
2017-05-19T06:33:46.744Z,1002.95
2017-05-19T06:34:46.735Z,1002.96
2017-05-19T06:35:46.721Z,1002.97
2017-05-19T06:36:46.704Z,1002.99
2017-05-19T06:37:46.682Z,1002.99
2017-05-19T06:38:46.666Z,1002.99
2017-05-19T06:39:46.656Z,1002.99
2017-05-19T06:40:46.634Z,1003.04
2017-05-19T06:41:46.623Z,1003.01
2017-05-19T06:42:46.604Z,1003.03
2017-05-19T06:43:46.591Z,1003.06
2017-05-19T06:44:46.574Z,1003.03
2017-05-19T06:45:46.566Z,1003.06
2017-05-19T06:46:46.550Z,1003.08
2017-05-19T06:47:46.536Z,1003.08
2017-05-19T06:48:46.512Z,1003.07
2017-05-19T06:49:46.502Z,1003.11
2017-05-19T06:50:46.485Z,1003.08
2017-05-19T06:51:46.474Z,1003.1
2017-05-19T06:52:46.455Z,1003.12
2017-05-19T06:53:46.443Z,1003.06
2017-05-19T06:54:46.425Z,1003.15
2017-05-19T06:55:46.410Z,1003.13
2017-05-19T06:56:46.394Z,1003.19
2017-05-19T06:57:46.378Z,1003.14
2017-05-19T06:58:46.367Z,1003.14
2017-05-19T06:59:46.348Z,1003.15
2017-05-19T07:00:46.335Z,1003.18
2017-05-19T07:01:46.318Z,1003.16
2017-05-19T07:02:46.302Z,1003.15
2017-05-19T07:03:46.297Z,1003.17
2017-05-19T07:04:46.276Z,1003.18
2017-05-19T07:05:46.266Z,1003.15
2017-05-19T07:06:46.244Z,1003.1
2017-05-19T07:07:46.236Z,1003.17
2017-05-19T07:08:46.218Z,1003.14
2017-05-19T07:09:46.204Z,1003.15
2017-05-19T07:10:46.190Z,1003.14
2017-05-19T07:11:46.172Z,1003.11
2017-05-19T07:12:46.159Z,1003.12
2017-05-19T07:13:46.145Z,1003.05
2017-05-19T07:14:46.126Z,1003.08
2017-05-19T07:15:46.214Z,1003.07
2017-05-19T07:16:46.103Z,1003.09
2017-05-19T07:17:46.095Z,1003.08
2017-05-19T07:18:46.074Z,1003.11
2017-05-19T07:19:46.154Z,1003.07
2017-05-19T07:20:46.044Z,1003.1
2017-05-19T07:21:46.029Z,1003.04
2017-05-19T07:22:46.013Z,1003.04
2017-05-19T07:23:46.006Z,1003.03
2017-05-19T07:24:45.985Z,1003.06
2017-05-19T07:25:45.971Z,1003.04
2017-05-19T07:26:45.953Z,1003.09
2017-05-19T07:27:45.945Z,1003.09
2017-05-19T07:28:45.929Z,1003.13
2017-05-19T07:29:45.916Z,1003.18
2017-05-19T07:30:45.905Z,1003.16
2017-05-19T07:31:45.887Z,1003.21
2017-05-19T07:32:45.871Z,1003.25
2017-05-19T07:33:45.904Z,1003.28
2017-05-19T07:34:45.841Z,1003.23
2017-05-19T07:35:45.876Z,1003.25
2017-05-19T07:36:45.816Z,1003.27
2017-05-19T07:37:45.844Z,1003.3
2017-05-19T07:38:45.787Z,1003.29
2017-05-19T07:39:45.784Z,1003.34
2017-05-19T07:40:45.756Z,1003.31
2017-05-19T07:41:45.744Z,1003.32
2017-05-19T07:42:45.726Z,1003.37
2017-05-19T07:43:45.713Z,1003.38
2017-05-19T07:44:45.693Z,1003.39
2017-05-19T07:45:45.694Z,1003.37
2017-05-19T07:46:45.673Z,1003.4
2017-05-19T07:47:45.657Z,1003.4
2017-05-19T07:48:45.640Z,1003.47
2017-05-19T07:49:45.625Z,1003.46
2017-05-19T07:50:45.609Z,1003.44
2017-05-19T07:51:45.597Z,1003.5
2017-05-19T07:52:45.583Z,1003.54
2017-05-19T07:53:45.567Z,1003.5
2017-05-19T07:54:45.552Z,1003.57
2017-05-19T07:55:45.534Z,1003.65
2017-05-19T07:56:45.525Z,1003.62
2017-05-19T07:57:45.513Z,1003.56
2017-05-19T07:58:45.493Z,1003.61
2017-05-19T07:59:45.474Z,1003.75
2017-05-19T08:00:45.463Z,1003.71
2017-05-19T08:01:45.443Z,1003.67
2017-05-19T08:02:45.433Z,1003.7
2017-05-19T08:03:45.426Z,1003.74
2017-05-19T08:04:45.399Z,1003.62
2017-05-19T08:05:45.385Z,1003.69
2017-05-19T08:06:45.377Z,1003.67
2017-05-19T08:07:45.354Z,1003.71
2017-05-19T08:08:45.345Z,1003.75
2017-05-19T08:09:45.336Z,1003.81
2017-05-19T08:10:45.308Z,1003.72
2017-05-19T08:11:45.294Z,1003.73
2017-05-19T08:12:45.281Z,1003.78
2017-05-19T08:13:45.262Z,1003.79
2017-05-19T08:14:45.250Z,1003.82
2017-05-19T08:15:45.235Z,1003.84
2017-05-19T08:16:45.219Z,1003.87
2017-05-19T08:17:45.206Z,1003.89
2017-05-19T08:18:45.186Z,1003.93
2017-05-19T08:19:45.180Z,1003.91
2017-05-19T08:20:45.163Z,1003.91
2017-05-19T08:21:45.140Z,1003.82
2017-05-19T08:22:45.124Z,1003.93
2017-05-19T08:23:45.117Z,1003.92
2017-05-19T08:24:45.093Z,1003.93
2017-05-19T08:25:45.072Z,1003.94
2017-05-19T08:26:45.064Z,1003.9
2017-05-19T08:27:45.044Z,1003.87
2017-05-19T08:28:45.033Z,1003.9
2017-05-19T08:29:45.016Z,1003.97
2017-05-19T08:30:44.999Z,1003.95
2017-05-19T08:31:44.983Z,1003.97
2017-05-19T08:32:44.969Z,1003.94
2017-05-19T08:33:44.951Z,1003.89
2017-05-19T08:34:44.935Z,1003.91
2017-05-19T08:35:44.923Z,1003.96
2017-05-19T08:36:44.904Z,1003.97
2017-05-19T08:37:44.890Z,1003.96
2017-05-19T08:38:44.874Z,1003.96
2017-05-19T08:39:44.858Z,1003.96
2017-05-19T08:40:44.845Z,1004.04
2017-05-19T08:41:44.826Z,1004.01
2017-05-19T08:42:44.813Z,1004.01
2017-05-19T08:43:44.794Z,1003.98
2017-05-19T08:44:44.783Z,1004
2017-05-19T08:45:44.763Z,1004.02
2017-05-19T08:46:44.754Z,1004.04
2017-05-19T08:47:44.733Z,1004.05
2017-05-19T08:48:44.724Z,1004.11
2017-05-19T08:49:44.701Z,1004.09
2017-05-19T08:50:44.685Z,1004.12
2017-05-19T08:51:44.671Z,1004.15
2017-05-19T08:52:44.655Z,1004.2
2017-05-19T08:53:44.640Z,1004.11
2017-05-19T08:54:44.622Z,1004.19
2017-05-19T08:55:44.610Z,1004.2
2017-05-19T08:56:44.594Z,1004.24
2017-05-19T08:57:44.579Z,1004.27
2017-05-19T08:58:44.563Z,1004.25
2017-05-19T08:59:44.554Z,1004.26
2017-05-19T09:00:44.534Z,1004.26
2017-05-19T09:01:44.517Z,1004.27
2017-05-19T09:02:44.500Z,1004.33
2017-05-19T09:03:44.493Z,1004.28
2017-05-19T09:04:44.473Z,1004.3
2017-05-19T09:05:44.454Z,1004.34
2017-05-19T09:06:44.438Z,1004.34
2017-05-19T09:07:44.424Z,1004.32
2017-05-19T09:08:44.407Z,1004.35
2017-05-19T09:09:44.394Z,1004.36
2017-05-19T09:10:44.386Z,1004.34
2017-05-19T09:11:44.364Z,1004.3
2017-05-19T09:12:44.346Z,1004.35
2017-05-19T09:13:44.332Z,1004.31
2017-05-19T09:14:44.425Z,1004.26
2017-05-19T09:15:44.303Z,1004.32
2017-05-19T09:16:44.285Z,1004.32
2017-05-19T09:17:44.270Z,1004.3
2017-05-19T09:18:44.334Z,1004.27
2017-05-19T09:19:44.240Z,1004.32
2017-05-19T09:20:44.383Z,1004.25
2017-05-19T09:21:44.207Z,1004.28
2017-05-19T09:22:44.290Z,1004.27
2017-05-19T09:23:44.173Z,1004.24
2017-05-19T09:24:44.166Z,1004.19
2017-05-19T09:25:44.143Z,1004.18
2017-05-19T09:26:44.234Z,1004.17
2017-05-19T09:27:44.115Z,1004.14
2017-05-19T09:28:44.103Z,1004.09
2017-05-19T09:29:44.084Z,1004.04
2017-05-19T09:30:44.166Z,1004.05
2017-05-19T09:31:44.058Z,1003.96
2017-05-19T09:32:44.090Z,1004.05
2017-05-19T09:33:44.024Z,1004
2017-05-19T09:34:44.010Z,1003.93
2017-05-19T09:35:43.994Z,1003.89
2017-05-19T09:36:43.981Z,1003.88
2017-05-19T09:37:43.965Z,1003.92
2017-05-19T09:38:44.004Z,1003.83
2017-05-19T09:39:43.930Z,1003.92
2017-05-19T09:40:43.924Z,1004
2017-05-19T09:41:43.905Z,1003.93
2017-05-19T09:42:43.885Z,1003.97
2017-05-19T09:43:43.875Z,1003.93
2017-05-19T09:44:43.854Z,1003.98
2017-05-19T09:45:43.845Z,1003.94
2017-05-19T09:46:43.825Z,1003.95
2017-05-19T09:47:43.809Z,1003.9
2017-05-19T09:48:43.797Z,1003.92
2017-05-19T09:49:43.782Z,1003.9
2017-05-19T09:50:43.813Z,1003.93
2017-05-19T09:51:43.746Z,1003.96
2017-05-19T09:52:43.734Z,1003.98
2017-05-19T09:53:43.714Z,1004.06
2017-05-19T09:54:43.703Z,1004.01
2017-05-19T09:55:43.685Z,1004.04
2017-05-19T09:56:43.674Z,1004.04
2017-05-19T09:57:43.656Z,1004.01
2017-05-19T09:58:43.644Z,1004.06
2017-05-19T09:59:43.624Z,1004.04
2017-05-19T10:00:43.610Z,1003.95
2017-05-19T10:01:43.592Z,1004.03
2017-05-19T10:02:43.579Z,1003.95
2017-05-19T10:03:43.563Z,1003.97
2017-05-19T10:04:43.549Z,1004.01
2017-05-19T10:05:43.537Z,1004.01
2017-05-19T10:06:43.517Z,1004.03
2017-05-19T10:07:43.505Z,1004.02
2017-05-19T10:08:43.495Z,1004.03
2017-05-19T10:09:43.471Z,1004.05
2017-05-19T10:10:43.455Z,1004.05
2017-05-19T10:11:43.444Z,1004.05
2017-05-19T10:12:43.433Z,1004.09
2017-05-19T10:13:43.412Z,1004.06
2017-05-19T10:14:43.396Z,1004.06
2017-05-19T10:15:43.380Z,1004.05
2017-05-19T10:16:43.367Z,1004.03
2017-05-19T10:17:43.361Z,1004.11
2017-05-19T10:18:43.345Z,1004.07
2017-05-19T10:19:43.326Z,1004.08
2017-05-19T10:20:43.316Z,1004.1
2017-05-19T10:21:43.295Z,1004.14
2017-05-19T10:22:43.343Z,1004.16
2017-05-19T10:23:43.265Z,1004.13
2017-05-19T10:24:43.253Z,1004.17
2017-05-19T10:25:43.231Z,1004.18
2017-05-19T10:26:43.226Z,1004.13
2017-05-19T10:27:43.205Z,1004.15
2017-05-19T10:28:43.189Z,1004.16
2017-05-19T10:29:43.172Z,1004.14
2017-05-19T10:30:43.164Z,1004.09
2017-05-19T10:31:43.147Z,1004.16
2017-05-19T10:32:43.128Z,1004.16
2017-05-19T10:33:43.115Z,1004.16
2017-05-19T10:34:43.106Z,1004.14
2017-05-19T10:35:43.084Z,1004.18
2017-05-19T10:36:43.070Z,1004.13
2017-05-19T10:37:43.067Z,1004.14
2017-05-19T10:38:43.046Z,1004.16
2017-05-19T10:39:43.037Z,1004.17
2017-05-19T10:40:43.024Z,1004.2
2017-05-19T10:41:43.003Z,1004.21
2017-05-19T10:42:42.985Z,1004.16
2017-05-19T10:43:42.972Z,1004.21
2017-05-19T10:44:42.953Z,1004.17
2017-05-19T10:45:42.945Z,1004.13
2017-05-19T10:46:42.931Z,1004.18
2017-05-19T10:47:42.915Z,1004.12
2017-05-19T10:48:42.905Z,1004.16
2017-05-19T10:49:42.885Z,1004.18
2017-05-19T10:50:42.874Z,1004.12
2017-05-19T10:51:42.860Z,1004.11
2017-05-19T10:52:42.849Z,1004.13
2017-05-19T10:53:42.833Z,1004.14
2017-05-19T10:54:42.823Z,1004.13
2017-05-19T10:55:42.805Z,1004.15
2017-05-19T10:56:42.785Z,1004.14
2017-05-19T10:57:42.775Z,1004.11
2017-05-19T10:58:42.756Z,1004.16
2017-05-19T10:59:42.744Z,1004.08
2017-05-19T11:00:42.737Z,1004.09
2017-05-19T11:01:42.714Z,1004.04
2017-05-19T11:02:42.702Z,1004.06
2017-05-19T11:03:42.684Z,1004.01
2017-05-19T11:04:42.670Z,1004.09
2017-05-19T11:05:42.664Z,1004.01
2017-05-19T11:06:42.639Z,1003.99
2017-05-19T11:07:42.636Z,1004.02
2017-05-19T11:08:42.614Z,1004.07
2017-05-19T11:09:42.603Z,1004.06
2017-05-19T11:10:42.585Z,1004.03
2017-05-19T11:11:42.565Z,1004.07
2017-05-19T11:12:42.553Z,1004.03
2017-05-19T11:13:42.607Z,1004.04
2017-05-19T11:14:42.524Z,1004.08
2017-05-19T11:15:42.611Z,1004.05
2017-05-19T11:16:42.493Z,1004.04
2017-05-19T11:17:42.529Z,1004.02
2017-05-19T11:18:42.466Z,1004.03
2017-05-19T11:19:42.475Z,1004.01
2017-05-19T11:20:42.445Z,1004.04
2017-05-19T11:21:42.473Z,1004.07
2017-05-19T11:22:42.406Z,1004.09
2017-05-19T11:23:42.394Z,1004.07
2017-05-19T11:24:42.374Z,1004.06
2017-05-19T11:25:42.365Z,1004
2017-05-19T11:26:42.345Z,1003.98
2017-05-19T11:27:42.334Z,1003.98
2017-05-19T11:28:42.316Z,1003.97
2017-05-19T11:29:42.301Z,1003.96
2017-05-19T11:30:42.285Z,1003.96
2017-05-19T11:31:42.275Z,1003.95
2017-05-19T11:32:42.255Z,1003.97
2017-05-19T11:33:42.247Z,1004.02
2017-05-19T11:34:42.227Z,1004.09
2017-05-19T11:35:42.259Z,1004.1
2017-05-19T11:36:42.195Z,1004.14
2017-05-19T11:37:42.181Z,1004.14
2017-05-19T11:38:42.165Z,1004.17
2017-05-19T11:39:42.151Z,1004.16
2017-05-19T11:40:42.134Z,1004.22
2017-05-19T11:41:42.179Z,1004.18
2017-05-19T11:42:42.104Z,1004.2
2017-05-19T11:43:42.083Z,1004.23
2017-05-19T11:44:42.072Z,1004.22
2017-05-19T11:45:42.053Z,1004.25
2017-05-19T11:46:42.045Z,1004.28
2017-05-19T11:47:42.037Z,1004.29
2017-05-19T11:48:42.008Z,1004.3
2017-05-19T11:49:41.994Z,1004.29
2017-05-19T11:50:41.980Z,1004.33
2017-05-19T11:51:41.964Z,1004.3
2017-05-19T11:52:41.947Z,1004.32
2017-05-19T11:53:41.942Z,1004.33
2017-05-19T11:54:41.921Z,1004.35
2017-05-19T11:55:41.901Z,1004.38
2017-05-19T11:56:41.890Z,1004.37
2017-05-19T11:57:41.877Z,1004.46
2017-05-19T11:58:41.856Z,1004.46
2017-05-19T11:59:41.844Z,1004.53
2017-05-19T12:00:41.823Z,1004.55
2017-05-19T12:01:41.813Z,1004.58
2017-05-19T12:02:41.795Z,1004.59
2017-05-19T12:03:41.783Z,1004.57
2017-05-19T12:04:41.760Z,1004.6
2017-05-19T12:05:41.749Z,1004.53
2017-05-19T12:06:41.734Z,1004.59
2017-05-19T12:07:41.712Z,1004.58
2017-05-19T12:08:41.703Z,1004.6